Terminal Aerodrome Forecast
Issued by NWS St Louis, MO

Home | Current Version | Previous Version | Text Only | Print | Product List | Glossary On
Versions: 1 2 3 4 5 6 7 8 9 10 11 12 13 14 15 16 17 18 19 20 21 22 23 24 25 26 27 28
000
FTUS43 KLSX 241443 AAA
TAFSTL
TAF AMD
KSTL 241443Z 2415/2518 32009KT P6SM SCT020 BKN100
     FM241800 32009KT P6SM VCSH BKN050
     FM250000 32008KT P6SM BKN060
     FM250500 30006KT P6SM SCT140
     FM250900 30006KT P6SM SCT035=

USA.gov is the U.S. government's official web portal to all federal, state and local government web resources and services.